sensor_id;sensor_type;location;lat;lon;timestamp;pressure;altitude;pressure_sealevel;temperature;humidity
59650;BME280;46162;57.568;25.814;2023-06-05T00:00:54;101381.53;;;4.14;100.00
59650;BME280;46162;57.568;25.814;2023-06-05T00:03:23;101387.03;;;3.97;100.00
59650;BME280;46162;57.568;25.814;2023-06-05T00:05:56;101389.78;;;3.95;100.00
59650;BME280;46162;57.568;25.814;2023-06-05T00:08:24;101383.41;;;3.83;100.00
59650;BME280;46162;57.568;25.814;2023-06-05T00:10:53;101386.16;;;3.82;100.00
59650;BME280;46162;57.568;25.814;2023-06-05T00:13:21;101382.69;;;3.80;100.00
59650;BME280;46162;57.568;25.814;2023-06-05T00:15:50;101384.28;;;3.68;100.00
59650;BME280;46162;57.568;25.814;2023-06-05T00:18:20;101387.13;;;3.65;100.00
59650;BME280;46162;57.568;25.814;2023-06-05T00:20:49;101387.22;;;3.63;100.00
59650;BME280;46162;57.568;25.814;2023-06-05T00:23:19;101385.44;;;3.64;100.00
59650;BME280;46162;57.568;25.814;2023-06-05T00:25:47;101388.69;;;3.69;100.00
59650;BME280;46162;57.568;25.814;2023-06-05T00:28:16;101389.00;;;3.79;100.00
59650;BME280;46162;57.568;25.814;2023-06-05T00:30:45;101396.75;;;3.83;100.00
59650;BME280;46162;57.568;25.814;2023-06-05T00:33:14;101390.72;;;3.80;100.00
59650;BME280;46162;57.568;25.814;2023-06-05T00:35:43;101383.22;;;3.86;100.00
59650;BME280;46162;57.568;25.814;2023-06-05T00:38:11;101382.34;;;3.86;100.00
59650;BME280;46162;57.568;25.814;2023-06-05T00:40:41;101387.84;;;3.83;100.00
59650;BME280;46162;57.568;25.814;2023-06-05T00:43:10;101388.91;;;3.50;100.00
59650;BME280;46162;57.568;25.814;2023-06-05T00:45:39;101392.16;;;3.55;100.00
59650;BME280;46162;57.568;25.814;2023-06-05T00:48:08;101384.91;;;3.57;100.00
59650;BME280;46162;57.568;25.814;2023-06-05T00:50:38;101389.16;;;3.61;100.00
59650;BME280;46162;57.568;25.814;2023-06-05T00:53:07;101394.38;;;3.63;100.00
59650;BME280;46162;57.568;25.814;2023-06-05T00:55:37;101390.44;;;3.54;100.00
59650;BME280;46162;57.568;25.814;2023-06-05T00:58:07;101397.75;;;3.51;100.00
59650;BME280;46162;57.568;25.814;2023-06-05T01:00:36;101391.97;;;3.58;100.00
59650;BME280;46162;57.568;25.814;2023-06-05T01:03:05;101395.78;;;3.54;100.00
59650;BME280;46162;57.568;25.814;2023-06-05T01:05:36;101399.56;;;3.50;100.00
59650;BME280;46162;57.568;25.814;2023-06-05T01:08:04;101402.31;;;3.49;100.00
59650;BME280;46162;57.568;25.814;2023-06-05T01:10:36;101398.91;;;3.47;100.00
59650;BME280;46162;57.568;25.814;2023-06-05T01:13:13;101403.78;;;3.54;100.00
59650;BME280;46162;57.568;25.814;2023-06-05T01:15:44;101407.13;;;3.58;100.00
59650;BME280;46162;57.568;25.814;2023-06-05T01:18:13;101402.50;;;3.61;100.00
59650;BME280;46162;57.568;25.814;2023-06-05T01:20:45;101406.81;;;3.48;100.00
59650;BME280;46162;57.568;25.814;2023-06-05T01:23:16;101407.63;;;3.18;100.00
59650;BME280;46162;57.568;25.814;2023-06-05T01:25:46;101403.94;;;3.05;100.00
59650;BME280;46162;57.568;25.814;2023-06-05T01:28:17;101415.38;;;3.07;100.00
59650;BME280;46162;57.568;25.814;2023-06-05T01:30:54;101416.84;;;3.13;100.00
59650;BME280;46162;57.568;25.814;2023-06-05T01:33:31;101417.88;;;3.10;100.00
59650;BME280;46162;57.568;25.814;2023-06-05T01:36:10;101416.16;;;3.09;100.00
59650;BME280;46162;57.568;25.814;2023-06-05T01:38:41;101412.59;;;3.09;100.00
59650;BME280;46162;57.568;25.814;2023-06-05T01:41:12;101415.97;;;3.12;100.00
59650;BME280;46162;57.568;25.814;2023-06-05T01:43:42;101423.38;;;3.23;100.00
59650;BME280;46162;57.568;25.814;2023-06-05T01:46:14;101423.13;;;3.28;100.00
59650;BME280;46162;57.568;25.814;2023-06-05T01:48:44;101414.00;;;3.32;100.00
59650;BME280;46162;57.568;25.814;2023-06-05T01:51:13;101413.53;;;3.23;100.00
59650;BME280;46162;57.568;25.814;2023-06-05T01:53:44;101420.69;;;3.23;100.00
59650;BME280;46162;57.568;25.814;2023-06-05T01:56:16;101412.69;;;3.23;100.00
59650;BME280;46162;57.568;25.814;2023-06-05T01:58:47;101418.72;;;3.27;100.00
59650;BME280;46162;57.568;25.814;2023-06-05T02:01:16;101417.84;;;3.42;100.00
59650;BME280;46162;57.568;25.814;2023-06-05T02:03:46;101416.56;;;3.49;100.00
59650;BME280;46162;57.568;25.814;2023-06-05T02:06:16;101417.16;;;3.38;100.00
59650;BME280;46162;57.568;25.814;2023-06-05T02:08:46;101411.81;;;3.38;100.00
59650;BME280;46162;57.568;25.814;2023-06-05T02:11:15;101426.75;;;3.27;100.00
59650;BME280;46162;57.568;25.814;2023-06-05T02:13:44;101415.53;;;3.36;100.00
59650;BME280;46162;57.568;25.814;2023-06-05T02:16:17;101415.66;;;3.49;100.00
59650;BME280;46162;57.568;25.814;2023-06-05T02:18:45;101421.44;;;3.57;100.00
59650;BME280;46162;57.568;25.814;2023-06-05T02:21:15;101419.88;;;3.69;100.00
59650;BME280;46162;57.568;25.814;2023-06-05T02:23:44;101418.66;;;3.74;100.00
59650;BME280;46162;57.568;25.814;2023-06-05T02:26:14;101426.81;;;3.87;100.00
59650;BME280;46162;57.568;25.814;2023-06-05T02:28:43;101422.81;;;3.94;100.00
59650;BME280;46162;57.568;25.814;2023-06-05T02:31:12;101419.09;;;3.97;100.00
59650;BME280;46162;57.568;25.814;2023-06-05T02:33:43;101416.16;;;4.01;100.00
59650;BME280;46162;57.568;25.814;2023-06-05T02:36:12;101425.22;;;3.99;100.00
59650;BME280;46162;57.568;25.814;2023-06-05T02:38:44;101424.69;;;4.08;100.00
59650;BME280;46162;57.568;25.814;2023-06-05T02:41:14;101429.72;;;4.13;100.00
59650;BME280;46162;57.568;25.814;2023-06-05T02:43:43;101435.78;;;4.00;100.00
59650;BME280;46162;57.568;25.814;2023-06-05T02:46:12;101432.84;;;4.05;100.00
59650;BME280;46162;57.568;25.814;2023-06-05T02:48:41;101428.22;;;4.08;100.00
59650;BME280;46162;57.568;25.814;2023-06-05T02:51:10;101434.91;;;4.16;100.00
59650;BME280;46162;57.568;25.814;2023-06-05T02:53:41;101437.41;;;4.33;100.00
59650;BME280;46162;57.568;25.814;2023-06-05T02:56:11;101434.84;;;4.46;100.00
59650;BME280;46162;57.568;25.814;2023-06-05T02:58:42;101443.94;;;4.58;100.00
59650;BME280;46162;57.568;25.814;2023-06-05T03:01:13;101446.03;;;4.67;100.00
59650;BME280;46162;57.568;25.814;2023-06-05T03:03:45;101444.59;;;4.76;100.00
59650;BME280;46162;57.568;25.814;2023-06-05T03:06:18;101450.25;;;4.85;100.00
59650;BME280;46162;57.568;25.814;2023-06-05T03:08:49;101446.03;;;4.95;100.00
59650;BME280;46162;57.568;25.814;2023-06-05T03:11:20;101439.91;;;5.08;100.00
59650;BME280;46162;57.568;25.814;2023-06-05T03:13:54;101447.13;;;5.20;100.00
59650;BME280;46162;57.568;25.814;2023-06-05T03:16:26;101446.44;;;5.31;100.00
59650;BME280;46162;57.568;25.814;2023-06-05T03:19:05;101451.13;;;5.42;100.00
59650;BME280;46162;57.568;25.814;2023-06-05T03:21:35;101455.00;;;5.50;100.00
59650;BME280;46162;57.568;25.814;2023-06-05T03:24:06;101448.28;;;5.57;100.00
59650;BME280;46162;57.568;25.814;2023-06-05T03:26:36;101454.75;;;5.68;100.00
59650;BME280;46162;57.568;25.814;2023-06-05T03:29:06;101450.59;;;5.76;100.00
59650;BME280;46162;57.568;25.814;2023-06-05T03:31:35;101454.09;;;5.91;100.00
59650;BME280;46162;57.568;25.814;2023-06-05T03:34:04;101455.78;;;5.92;100.00
59650;BME280;46162;57.568;25.814;2023-06-05T03:36:34;101463.34;;;6.00;100.00
59650;BME280;46162;57.568;25.814;2023-06-05T03:39:07;101459.84;;;6.12;100.00
59650;BME280;46162;57.568;25.814;2023-06-05T03:41:38;101460.28;;;6.19;100.00
59650;BME280;46162;57.568;25.814;2023-06-05T03:44:09;101465.13;;;6.27;100.00
59650;BME280;46162;57.568;25.814;2023-06-05T03:46:38;101461.91;;;6.34;100.00
59650;BME280;46162;57.568;25.814;2023-06-05T03:49:06;101464.59;;;6.47;100.00
59650;BME280;46162;57.568;25.814;2023-06-05T03:51:37;101466.22;;;6.50;100.00
59650;BME280;46162;57.568;25.814;2023-06-05T03:54:07;101470.31;;;6.55;100.00
59650;BME280;46162;57.568;25.814;2023-06-05T03:56:37;101462.56;;;6.63;100.00
59650;BME280;46162;57.568;25.814;2023-06-05T03:59:14;101466.31;;;6.74;100.00
59650;BME280;46162;57.568;25.814;2023-06-05T04:01:52;101471.47;;;6.77;100.00
59650;BME280;46162;57.568;25.814;2023-06-05T04:04:21;101467.16;;;6.87;100.00
59650;BME280;46162;57.568;25.814;2023-06-05T04:06:54;101467.69;;;6.92;100.00
59650;BME280;46162;57.568;25.814;2023-06-05T04:09:25;101459.22;;;6.98;100.00
59650;BME280;46162;57.568;25.814;2023-06-05T04:11:54;101462.72;;;7.11;100.00
59650;BME280;46162;57.568;25.814;2023-06-05T04:14:24;101462.53;;;7.15;100.00
59650;BME280;46162;57.568;25.814;2023-06-05T04:16:53;101461.84;;;7.24;100.00
59650;BME280;46162;57.568;25.814;2023-06-05T04:19:24;101461.69;;;7.38;100.00
59650;BME280;46162;57.568;25.814;2023-06-05T04:21:56;101458.00;;;7.52;100.00
59650;BME280;46162;57.568;25.814;2023-06-05T04:24:25;101469.38;;;7.56;100.00
59650;BME280;46162;57.568;25.814;2023-06-05T04:26:55;101464.84;;;7.56;100.00
59650;BME280;46162;57.568;25.814;2023-06-05T04:29:26;101467.03;;;7.75;100.00
59650;BME280;46162;57.568;25.814;2023-06-05T04:31:56;101464.13;;;7.78;100.00
59650;BME280;46162;57.568;25.814;2023-06-05T04:34:25;101465.38;;;7.85;100.00
59650;BME280;46162;57.568;25.814;2023-06-05T04:36:55;101466.13;;;7.87;100.00
59650;BME280;46162;57.568;25.814;2023-06-05T04:39:23;101472.41;;;7.99;100.00
59650;BME280;46162;57.568;25.814;2023-06-05T04:41:54;101469.59;;;8.01;100.00
59650;BME280;46162;57.568;25.814;2023-06-05T04:44:44;101472.50;;;8.22;100.00
59650;BME280;46162;57.568;25.814;2023-06-05T04:47:14;101472.94;;;8.39;100.00
59650;BME280;46162;57.568;25.814;2023-06-05T04:49:43;101470.56;;;8.35;100.00
59650;BME280;46162;57.568;25.814;2023-06-05T04:52:15;101478.78;;;8.33;100.00
59650;BME280;46162;57.568;25.814;2023-06-05T04:54:44;101474.69;;;8.52;100.00
59650;BME280;46162;57.568;25.814;2023-06-05T04:57:13;101478.56;;;8.48;100.00
59650;BME280;46162;57.568;25.814;2023-06-05T04:59:45;101488.19;;;8.63;100.00
59650;BME280;46162;57.568;25.814;2023-06-05T05:02:15;101485.94;;;8.57;100.00
59650;BME280;46162;57.568;25.814;2023-06-05T05:04:45;101485.97;;;8.68;100.00
59650;BME280;46162;57.568;25.814;2023-06-05T05:07:14;101484.25;;;8.67;100.00
59650;BME280;46162;57.568;25.814;2023-06-05T05:09:44;101487.94;;;8.66;100.00
59650;BME280;46162;57.568;25.814;2023-06-05T05:12:14;101485.47;;;8.74;100.00
59650;BME280;46162;57.568;25.814;2023-06-05T05:14:42;101484.28;;;8.78;100.00
59650;BME280;46162;57.568;25.814;2023-06-05T05:17:13;101480.38;;;9.05;100.00
59650;BME280;46162;57.568;25.814;2023-06-05T05:19:47;101477.28;;;9.10;100.00
59650;BME280;46162;57.568;25.814;2023-06-05T05:22:16;101477.28;;;9.21;100.00
59650;BME280;46162;57.568;25.814;2023-06-05T05:24:45;101488.94;;;9.21;100.00
59650;BME280;46162;57.568;25.814;2023-06-05T05:27:14;101487.09;;;9.22;100.00
59650;BME280;46162;57.568;25.814;2023-06-05T05:29:43;101482.19;;;9.38;100.00
59650;BME280;46162;57.568;25.814;2023-06-05T05:32:14;101491.97;;;9.39;100.00
59650;BME280;46162;57.568;25.814;2023-06-05T05:34:43;101485.94;;;9.69;100.00
59650;BME280;46162;57.568;25.814;2023-06-05T05:37:12;101490.78;;;9.76;100.00
59650;BME280;46162;57.568;25.814;2023-06-05T05:39:42;101484.91;;;9.82;100.00
59650;BME280;46162;57.568;25.814;2023-06-05T05:42:10;101487.13;;;9.77;100.00
59650;BME280;46162;57.568;25.814;2023-06-05T05:44:39;101491.53;;;9.78;100.00
59650;BME280;46162;57.568;25.814;2023-06-05T05:47:11;101487.47;;;9.83;100.00
59650;BME280;46162;57.568;25.814;2023-06-05T05:49:41;101487.44;;;9.95;100.00
59650;BME280;46162;57.568;25.814;2023-06-05T05:52:10;101481.66;;;9.99;100.00
59650;BME280;46162;57.568;25.814;2023-06-05T05:54:38;101481.00;;;10.07;100.00
59650;BME280;46162;57.568;25.814;2023-06-05T05:57:07;101485.47;;;10.29;100.00
59650;BME280;46162;57.568;25.814;2023-06-05T05:59:36;101486.34;;;10.29;100.00
59650;BME280;46162;57.568;25.814;2023-06-05T06:02:05;101491.41;;;10.44;100.00
59650;BME280;46162;57.568;25.814;2023-06-05T06:04:37;101501.56;;;10.51;100.00
59650;BME280;46162;57.568;25.814;2023-06-05T06:07:08;101497.75;;;10.54;100.00
59650;BME280;46162;57.568;25.814;2023-06-05T06:09:37;101508.22;;;10.68;100.00
59650;BME280;46162;57.568;25.814;2023-06-05T06:12:06;101508.84;;;10.82;100.00
59650;BME280;46162;57.568;25.814;2023-06-05T06:14:35;101504.47;;;10.90;100.00
59650;BME280;46162;57.568;25.814;2023-06-05T06:17:04;101502.81;;;10.99;100.00
59650;BME280;46162;57.568;25.814;2023-06-05T06:19:37;101508.78;;;10.93;100.00
59650;BME280;46162;57.568;25.814;2023-06-05T06:22:07;101512.34;;;10.93;100.00
59650;BME280;46162;57.568;25.814;2023-06-05T06:24:39;101519.53;;;11.14;100.00
59650;BME280;46162;57.568;25.814;2023-06-05T06:27:09;101526.13;;;11.21;100.00
59650;BME280;46162;57.568;25.814;2023-06-05T06:29:47;101515.88;;;11.25;100.00
59650;BME280;46162;57.568;25.814;2023-06-05T06:32:16;101510.50;;;11.34;100.00
59650;BME280;46162;57.568;25.814;2023-06-05T06:34:44;101519.22;;;11.38;100.00
59650;BME280;46162;57.568;25.814;2023-06-05T06:37:15;101510.53;;;11.44;100.00
59650;BME280;46162;57.568;25.814;2023-06-05T06:39:44;101505.44;;;11.51;100.00
59650;BME280;46162;57.568;25.814;2023-06-05T06:42:13;101504.72;;;11.49;100.00
59650;BME280;46162;57.568;25.814;2023-06-05T06:44:51;101511.19;;;11.67;100.00
59650;BME280;46162;57.568;25.814;2023-06-05T06:47:23;101510.91;;;11.70;100.00
59650;BME280;46162;57.568;25.814;2023-06-05T06:49:53;101514.03;;;11.66;100.00
59650;BME280;46162;57.568;25.814;2023-06-05T06:52:23;101510.09;;;11.79;100.00
59650;BME280;46162;57.568;25.814;2023-06-05T06:54:52;101505.16;;;11.94;100.00
59650;BME280;46162;57.568;25.814;2023-06-05T06:57:21;101499.88;;;11.93;100.00
59650;BME280;46162;57.568;25.814;2023-06-05T06:59:49;101503.44;;;12.03;100.00
59650;BME280;46162;57.568;25.814;2023-06-05T07:02:23;101508.44;;;12.17;100.00
59650;BME280;46162;57.568;25.814;2023-06-05T07:04:52;101509.16;;;12.19;100.00
59650;BME280;46162;57.568;25.814;2023-06-05T07:07:23;101509.84;;;11.92;100.00
59650;BME280;46162;57.568;25.814;2023-06-05T07:09:52;101497.47;;;12.09;100.00
59650;BME280;46162;57.568;25.814;2023-06-05T07:12:21;101499.00;;;12.21;100.00
59650;BME280;46162;57.568;25.814;2023-06-05T07:14:50;101500.59;;;12.24;100.00
59650;BME280;46162;57.568;25.814;2023-06-05T07:17:18;101503.56;;;12.31;100.00
59650;BME280;46162;57.568;25.814;2023-06-05T07:19:48;101499.28;;;12.38;100.00
59650;BME280;46162;57.568;25.814;2023-06-05T07:22:17;101498.16;;;12.50;100.00
59650;BME280;46162;57.568;25.814;2023-06-05T07:24:47;101499.69;;;12.62;100.00
59650;BME280;46162;57.568;25.814;2023-06-05T07:27:16;101499.41;;;12.65;100.00
59650;BME280;46162;57.568;25.814;2023-06-05T07:29:45;101501.84;;;12.68;100.00
59650;BME280;46162;57.568;25.814;2023-06-05T07:32:18;101506.22;;;12.79;100.00
59650;BME280;46162;57.568;25.814;2023-06-05T07:34:47;101500.50;;;12.82;100.00
59650;BME280;46162;57.568;25.814;2023-06-05T07:37:16;101505.84;;;13.11;100.00
59650;BME280;46162;57.568;25.814;2023-06-05T07:39:46;101505.41;;;13.16;100.00
59650;BME280;46162;57.568;25.814;2023-06-05T07:42:17;101504.41;;;13.07;100.00
59650;BME280;46162;57.568;25.814;2023-06-05T07:44:46;101509.25;;;13.13;100.00
59650;BME280;46162;57.568;25.814;2023-06-05T07:47:15;101504.81;;;13.12;100.00
59650;BME280;46162;57.568;25.814;2023-06-05T07:49:44;101502.63;;;12.98;100.00
59650;BME280;46162;57.568;25.814;2023-06-05T07:52:26;101505.72;;;13.03;100.00
59650;BME280;46162;57.568;25.814;2023-06-05T07:54:56;101505.94;;;13.20;100.00
59650;BME280;46162;57.568;25.814;2023-06-05T07:57:25;101515.34;;;13.25;100.00
59650;BME280;46162;57.568;25.814;2023-06-05T07:59:54;101503.81;;;13.23;100.00
59650;BME280;46162;57.568;25.814;2023-06-05T08:02:23;101505.09;;;13.29;100.00
59650;BME280;46162;57.568;25.814;2023-06-05T08:04:52;101502.66;;;13.26;100.00
59650;BME280;46162;57.568;25.814;2023-06-05T08:07:21;101522.78;;;13.33;100.00
59650;BME280;46162;57.568;25.814;2023-06-05T08:09:50;101520.28;;;13.02;100.00
59650;BME280;46162;57.568;25.814;2023-06-05T08:12:20;101518.38;;;13.12;100.00
59650;BME280;46162;57.568;25.814;2023-06-05T08:14:48;101514.44;;;13.44;100.00
59650;BME280;46162;57.568;25.814;2023-06-05T08:17:17;101516.63;;;13.59;100.00
59650;BME280;46162;57.568;25.814;2023-06-05T08:19:46;101512.47;;;13.82;100.00
59650;BME280;46162;57.568;25.814;2023-06-05T08:22:15;101527.38;;;13.78;100.00
59650;BME280;46162;57.568;25.814;2023-06-05T08:24:44;101525.63;;;13.59;100.00
59650;BME280;46162;57.568;25.814;2023-06-05T08:27:12;101519.44;;;13.67;100.00
59650;BME280;46162;57.568;25.814;2023-06-05T08:29:42;101519.38;;;13.76;100.00
59650;BME280;46162;57.568;25.814;2023-06-05T08:32:11;101522.28;;;13.75;100.00
59650;BME280;46162;57.568;25.814;2023-06-05T08:34:40;101529.34;;;13.86;100.00
59650;BME280;46162;57.568;25.814;2023-06-05T08:37:08;101521.66;;;13.81;100.00
59650;BME280;46162;57.568;25.814;2023-06-05T08:39:37;101524.75;;;13.86;100.00
59650;BME280;46162;57.568;25.814;2023-06-05T08:42:06;101521.28;;;14.12;100.00
59650;BME280;46162;57.568;25.814;2023-06-05T08:44:35;101523.00;;;14.31;100.00
59650;BME280;46162;57.568;25.814;2023-06-05T08:47:10;101530.16;;;14.32;100.00
59650;BME280;46162;57.568;25.814;2023-06-05T08:49:41;101528.72;;;14.46;100.00
59650;BME280;46162;57.568;25.814;2023-06-05T08:52:11;101531.75;;;14.43;100.00
59650;BME280;46162;57.568;25.814;2023-06-05T08:54:41;101527.09;;;14.53;100.00
59650;BME280;46162;57.568;25.814;2023-06-05T08:57:10;101524.38;;;14.53;100.00
59650;BME280;46162;57.568;25.814;2023-06-05T08:59:40;101521.59;;;14.27;100.00
59650;BME280;46162;57.568;25.814;2023-06-05T09:02:10;101523.09;;;14.57;100.00
59650;BME280;46162;57.568;25.814;2023-06-05T09:04:39;101518.78;;;14.72;100.00
59650;BME280;46162;57.568;25.814;2023-06-05T09:07:08;101525.19;;;14.89;100.00
59650;BME280;46162;57.568;25.814;2023-06-05T09:09:38;101523.09;;;15.09;100.00
59650;BME280;46162;57.568;25.814;2023-06-05T09:12:07;101523.09;;;15.09;98.23
59650;BME280;46162;57.568;25.814;2023-06-05T09:14:36;101524.06;;;15.00;100.00
59650;BME280;46162;57.568;25.814;2023-06-05T09:17:13;101514.97;;;15.17;100.00
59650;BME280;46162;57.568;25.814;2023-06-05T09:19:43;101507.53;;;14.93;100.00
59650;BME280;46162;57.568;25.814;2023-06-05T09:22:12;101509.09;;;14.52;96.34
59650;BME280;46162;57.568;25.814;2023-06-05T09:24:43;101513.75;;;14.86;99.16
59650;BME280;46162;57.568;25.814;2023-06-05T09:27:16;101511.03;;;14.59;100.00
59650;BME280;46162;57.568;25.814;2023-06-05T09:29:45;101507.16;;;14.26;100.00
59650;BME280;46162;57.568;25.814;2023-06-05T09:32:18;101502.91;;;14.41;100.00
59650;BME280;46162;57.568;25.814;2023-06-05T09:34:54;101502.19;;;15.10;100.00
59650;BME280;46162;57.568;25.814;2023-06-05T09:37:33;101504.09;;;15.17;100.00
59650;BME280;46162;57.568;25.814;2023-06-05T09:40:04;101498.13;;;14.79;100.00
59650;BME280;46162;57.568;25.814;2023-06-05T09:42:35;101499.91;;;14.53;100.00
59650;BME280;46162;57.568;25.814;2023-06-05T09:45:04;101501.94;;;14.51;100.00
59650;BME280;46162;57.568;25.814;2023-06-05T09:47:35;101501.41;;;14.65;98.60
59650;BME280;46162;57.568;25.814;2023-06-05T09:50:22;101501.72;;;14.62;100.00
59650;BME280;46162;57.568;25.814;2023-06-05T09:52:52;101494.19;;;14.56;100.00
59650;BME280;46162;57.568;25.814;2023-06-05T09:55:23;101498.84;;;14.46;100.00
59650;BME280;46162;57.568;25.814;2023-06-05T09:57:57;101502.91;;;14.59;100.00
59650;BME280;46162;57.568;25.814;2023-06-05T10:00:28;101496.09;;;14.81;100.00
59650;BME280;46162;57.568;25.814;2023-06-05T10:02:59;101502.31;;;15.00;100.00
59650;BME280;46162;57.568;25.814;2023-06-05T10:05:28;101499.50;;;15.18;100.00
59650;BME280;46162;57.568;25.814;2023-06-05T10:07:58;101489.91;;;15.32;100.00
59650;BME280;46162;57.568;25.814;2023-06-05T10:10:27;101492.97;;;15.37;100.00
59650;BME280;46162;57.568;25.814;2023-06-05T10:12:58;101504.19;;;15.34;100.00
59650;BME280;46162;57.568;25.814;2023-06-05T10:15:31;101502.69;;;15.47;100.00
59650;BME280;46162;57.568;25.814;2023-06-05T10:18:01;101505.75;;;15.87;100.00
59650;BME280;46162;57.568;25.814;2023-06-05T10:20:32;101507.09;;;15.75;100.00
59650;BME280;46162;57.568;25.814;2023-06-05T10:23:03;101511.00;;;15.38;99.99
59650;BME280;46162;57.568;25.814;2023-06-05T10:25:34;101502.03;;;15.45;100.00
59650;BME280;46162;57.568;25.814;2023-06-05T10:28:18;101499.25;;;15.80;100.00
59650;BME280;46162;57.568;25.814;2023-06-05T10:31:18;101508.72;;;16.10;98.71
59650;BME280;46162;57.568;25.814;2023-06-05T10:34:17;101511.09;;;16.13;100.00
59650;BME280;46162;57.568;25.814;2023-06-05T10:39:54;101501.31;;;15.78;96.35
59650;BME280;46162;57.568;25.814;2023-06-05T10:42:24;101508.31;;;15.46;100.00
59650;BME280;46162;57.568;25.814;2023-06-05T10:44:53;101508.84;;;15.15;100.00
59650;BME280;46162;57.568;25.814;2023-06-05T10:47:52;101497.63;;;15.53;100.00
59650;BME280;46162;57.568;25.814;2023-06-05T10:50:27;101504.94;;;15.52;100.00
59650;BME280;46162;57.568;25.814;2023-06-05T10:52:58;101498.25;;;15.38;96.35
59650;BME280;46162;57.568;25.814;2023-06-05T10:55:41;101508.94;;;15.32;100.00
59650;BME280;46162;57.568;25.814;2023-06-05T10:58:11;101509.66;;;15.08;100.00
59650;BME280;46162;57.568;25.814;2023-06-05T11:01:16;101505.56;;;15.38;100.00
59650;BME280;46162;57.568;25.814;2023-06-05T11:04:07;101494.00;;;15.36;100.00
59650;BME280;46162;57.568;25.814;2023-06-05T11:06:37;101498.97;;;15.91;100.00
59650;BME280;46162;57.568;25.814;2023-06-05T11:09:10;101492.84;;;15.97;100.00
59650;BME280;46162;57.568;25.814;2023-06-05T11:11:56;101485.72;;;16.21;100.00
59650;BME280;46162;57.568;25.814;2023-06-05T11:14:42;101495.59;;;16.13;92.31
59650;BME280;46162;57.568;25.814;2023-06-05T11:17:27;101488.78;;;16.18;97.88
59650;BME280;46162;57.568;25.814;2023-06-05T11:19:57;101488.06;;;15.83;100.00
59650;BME280;46162;57.568;25.814;2023-06-05T11:22:27;101492.34;;;16.02;100.00
59650;BME280;46162;57.568;25.814;2023-06-05T11:25:24;101486.03;;;16.09;97.56
59650;BME280;46162;57.568;25.814;2023-06-05T11:27:55;101484.03;;;16.36;86.23
59650;BME280;46162;57.568;25.814;2023-06-05T11:30:26;101486.06;;;16.50;90.89
59650;BME280;46162;57.568;25.814;2023-06-05T11:33:14;101484.19;;;16.43;91.82
59650;BME280;46162;57.568;25.814;2023-06-05T11:35:45;101479.41;;;16.12;95.29
59650;BME280;46162;57.568;25.814;2023-06-05T11:38:17;101479.91;;;15.91;97.37
59650;BME280;46162;57.568;25.814;2023-06-05T11:40:49;101483.16;;;16.11;93.56
59650;BME280;46162;57.568;25.814;2023-06-05T11:43:18;101482.66;;;16.24;88.07
59650;BME280;46162;57.568;25.814;2023-06-05T11:45:51;101481.59;;;15.92;90.52
59650;BME280;46162;57.568;25.814;2023-06-05T11:48:21;101474.66;;;16.22;90.09
59650;BME280;46162;57.568;25.814;2023-06-05T11:50:55;101475.16;;;16.18;93.36
59650;BME280;46162;57.568;25.814;2023-06-05T11:53:26;101474.50;;;16.07;98.14
59650;BME280;46162;57.568;25.814;2023-06-05T11:55:56;101480.47;;;16.27;100.00
59650;BME280;46162;57.568;25.814;2023-06-05T11:58:39;101479.59;;;16.10;88.03
59650;BME280;46162;57.568;25.814;2023-06-05T12:01:09;101472.75;;;16.15;97.78
59650;BME280;46162;57.568;25.814;2023-06-05T12:03:42;101470.75;;;16.25;91.59
59650;BME280;46162;57.568;25.814;2023-06-05T12:06:11;101479.91;;;15.91;86.49
59650;BME280;46162;57.568;25.814;2023-06-05T12:08:42;101476.00;;;15.94;85.35
59650;BME280;46162;57.568;25.814;2023-06-05T12:11:25;101482.75;;;15.73;93.14
59650;BME280;46162;57.568;25.814;2023-06-05T12:13:55;101469.97;;;15.65;94.61
59650;BME280;46162;57.568;25.814;2023-06-05T12:16:32;101456.59;;;15.97;97.21
59650;BME280;46162;57.568;25.814;2023-06-05T12:19:02;101466.25;;;15.75;91.43
59650;BME280;46162;57.568;25.814;2023-06-05T12:21:42;101469.97;;;15.65;93.00
59650;BME280;46162;57.568;25.814;2023-06-05T12:24:13;101463.38;;;15.84;95.17
59650;BME280;46162;57.568;25.814;2023-06-05T12:26:52;101462.88;;;15.81;86.66
59650;BME280;46162;57.568;25.814;2023-06-05T12:29:24;101447.41;;;15.98;94.63
59650;BME280;46162;57.568;25.814;2023-06-05T12:31:55;101458.16;;;16.07;92.37
59650;BME280;46162;57.568;25.814;2023-06-05T12:34:41;101441.63;;;16.01;93.36
59650;BME280;46162;57.568;25.814;2023-06-05T12:37:24;101444.88;;;16.12;89.59
59650;BME280;46162;57.568;25.814;2023-06-05T12:39:56;101455.75;;;16.29;100.00
59650;BME280;46162;57.568;25.814;2023-06-05T12:42:27;101454.22;;;16.26;97.67
59650;BME280;46162;57.568;25.814;2023-06-05T12:44:56;101449.97;;;16.16;96.29
59650;BME280;46162;57.568;25.814;2023-06-05T12:47:24;101451.69;;;16.25;100.00
59650;BME280;46162;57.568;25.814;2023-06-05T12:49:53;101446.88;;;16.27;99.56
59650;BME280;46162;57.568;25.814;2023-06-05T12:52:24;101451.34;;;16.28;100.00
59650;BME280;46162;57.568;25.814;2023-06-05T12:54:54;101451.31;;;16.36;100.00
59650;BME280;46162;57.568;25.814;2023-06-05T12:57:25;101456.59;;;16.46;83.97
59650;BME280;46162;57.568;25.814;2023-06-05T12:59:54;101462.72;;;16.31;84.11